sensor_id;sensor_type;location;lat;lon;timestamp;P1;durP1;ratioP1;P2;durP2;ratioP2
84999;SDS011;75320;51.608;7.952;2024-02-26T00:00:35;5.53;;;4.93;;
84999;SDS011;75320;51.608;7.952;2024-02-26T00:03:03;5.70;;;4.80;;
84999;SDS011;75320;51.608;7.952;2024-02-26T00:05:28;6.18;;;4.47;;
84999;SDS011;75320;51.608;7.952;2024-02-26T00:07:56;6.72;;;5.10;;
84999;SDS011;75320;51.608;7.952;2024-02-26T00:10:21;5.05;;;3.08;;
84999;SDS011;75320;51.608;7.952;2024-02-26T00:12:48;5.30;;;4.80;;
84999;SDS011;75320;51.608;7.952;2024-02-26T00:15:15;6.70;;;5.78;;
84999;SDS011;75320;51.608;7.952;2024-02-26T00:17:41;5.18;;;3.55;;
84999;SDS011;75320;51.608;7.952;2024-02-26T00:20:06;5.78;;;4.53;;
84999;SDS011;75320;51.608;7.952;2024-02-26T00:22:34;5.43;;;4.47;;
84999;SDS011;75320;51.608;7.952;2024-02-26T00:25:00;6.05;;;5.45;;
84999;SDS011;75320;51.608;7.952;2024-02-26T00:27:25;6.55;;;5.20;;
84999;SDS011;75320;51.608;7.952;2024-02-26T00:29:50;5.00;;;4.50;;
84999;SDS011;75320;51.608;7.952;2024-02-26T00:32:17;5.65;;;5.07;;
84999;SDS011;75320;51.608;7.952;2024-02-26T00:34:43;6.05;;;4.55;;
84999;SDS011;75320;51.608;7.952;2024-02-26T00:37:08;5.63;;;5.03;;
84999;SDS011;75320;51.608;7.952;2024-02-26T00:39:33;6.33;;;5.73;;
84999;SDS011;75320;51.608;7.952;2024-02-26T00:41:59;5.20;;;4.70;;
84999;SDS011;75320;51.608;7.952;2024-02-26T00:44:25;6.53;;;4.47;;
84999;SDS011;75320;51.608;7.952;2024-02-26T00:46:50;5.10;;;2.58;;
84999;SDS011;75320;51.608;7.952;2024-02-26T00:49:15;5.78;;;4.88;;
84999;SDS011;75320;51.608;7.952;2024-02-26T00:51:41;5.17;;;4.67;;
84999;SDS011;75320;51.608;7.952;2024-02-26T00:54:06;4.60;;;2.93;;
84999;SDS011;75320;51.608;7.952;2024-02-26T00:56:32;6.65;;;4.75;;
84999;SDS011;75320;51.608;7.952;2024-02-26T00:58:58;5.00;;;4.50;;
84999;SDS011;75320;51.608;7.952;2024-02-26T01:01:23;5.25;;;4.75;;
84999;SDS011;75320;51.608;7.952;2024-02-26T01:03:50;6.00;;;5.47;;
84999;SDS011;75320;51.608;7.952;2024-02-26T01:06:15;4.03;;;2.15;;
84999;SDS011;75320;51.608;7.952;2024-02-26T01:08:40;7.53;;;6.93;;
84999;SDS011;75320;51.608;7.952;2024-02-26T01:11:06;5.97;;;2.47;;
84999;SDS011;75320;51.608;7.952;2024-02-26T01:13:32;4.40;;;2.15;;
84999;SDS011;75320;51.608;7.952;2024-02-26T01:15:57;4.45;;;3.90;;
84999;SDS011;75320;51.608;7.952;2024-02-26T01:18:24;4.70;;;4.20;;
84999;SDS011;75320;51.608;7.952;2024-02-26T01:20:51;5.57;;;3.90;;
84999;SDS011;75320;51.608;7.952;2024-02-26T01:23:18;5.47;;;5.05;;
84999;SDS011;75320;51.608;7.952;2024-02-26T01:25:43;4.97;;;4.47;;
84999;SDS011;75320;51.608;7.952;2024-02-26T01:28:08;4.13;;;3.73;;
84999;SDS011;75320;51.608;7.952;2024-02-26T01:30:35;4.32;;;3.78;;
84999;SDS011;75320;51.608;7.952;2024-02-26T01:33:00;5.40;;;4.27;;
84999;SDS011;75320;51.608;7.952;2024-02-26T01:35:25;4.60;;;4.20;;
84999;SDS011;75320;51.608;7.952;2024-02-26T01:37:51;4.28;;;3.63;;
84999;SDS011;75320;51.608;7.952;2024-02-26T01:40:16;3.92;;;3.42;;
84999;SDS011;75320;51.608;7.952;2024-02-26T01:42:44;3.55;;;2.13;;
84999;SDS011;75320;51.608;7.952;2024-02-26T01:45:12;5.22;;;4.15;;
84999;SDS011;75320;51.608;7.952;2024-02-26T01:47:45;3.78;;;2.15;;
84999;SDS011;75320;51.608;7.952;2024-02-26T01:50:11;4.90;;;3.83;;
84999;SDS011;75320;51.608;7.952;2024-02-26T01:52:36;3.75;;;2.40;;
84999;SDS011;75320;51.608;7.952;2024-02-26T01:55:02;4.05;;;3.63;;
84999;SDS011;75320;51.608;7.952;2024-02-26T01:57:29;5.03;;;3.20;;
84999;SDS011;75320;51.608;7.952;2024-02-26T01:59:55;4.00;;;2.95;;
84999;SDS011;75320;51.608;7.952;2024-02-26T02:02:20;4.22;;;3.42;;
84999;SDS011;75320;51.608;7.952;2024-02-26T02:04:46;4.97;;;3.72;;
84999;SDS011;75320;51.608;7.952;2024-02-26T02:07:11;4.43;;;3.78;;
84999;SDS011;75320;51.608;7.952;2024-02-26T02:09:37;4.20;;;3.50;;
84999;SDS011;75320;51.608;7.952;2024-02-26T02:12:03;5.63;;;2.22;;
84999;SDS011;75320;51.608;7.952;2024-02-26T02:14:29;5.18;;;3.97;;
84999;SDS011;75320;51.608;7.952;2024-02-26T02:16:54;4.75;;;4.28;;
84999;SDS011;75320;51.608;7.952;2024-02-26T02:19:20;3.50;;;2.25;;
84999;SDS011;75320;51.608;7.952;2024-02-26T02:21:45;5.83;;;4.13;;
84999;SDS011;75320;51.608;7.952;2024-02-26T02:24:10;4.17;;;2.60;;
84999;SDS011;75320;51.608;7.952;2024-02-26T02:26:36;5.37;;;4.63;;
84999;SDS011;75320;51.608;7.952;2024-02-26T02:29:02;3.35;;;2.05;;
84999;SDS011;75320;51.608;7.952;2024-02-26T02:31:29;5.43;;;3.95;;
84999;SDS011;75320;51.608;7.952;2024-02-26T02:33:54;5.05;;;4.55;;
84999;SDS011;75320;51.608;7.952;2024-02-26T02:36:20;6.07;;;4.93;;
84999;SDS011;75320;51.608;7.952;2024-02-26T02:38:48;4.88;;;4.38;;
84999;SDS011;75320;51.608;7.952;2024-02-26T02:41:17;3.97;;;3.47;;
84999;SDS011;75320;51.608;7.952;2024-02-26T02:43:43;4.60;;;3.55;;
84999;SDS011;75320;51.608;7.952;2024-02-26T02:46:09;3.60;;;2.13;;
84999;SDS011;75320;51.608;7.952;2024-02-26T02:48:39;3.95;;;2.22;;
84999;SDS011;75320;51.608;7.952;2024-02-26T02:51:06;4.53;;;3.53;;
84999;SDS011;75320;51.608;7.952;2024-02-26T02:53:31;5.80;;;4.27;;
84999;SDS011;75320;51.608;7.952;2024-02-26T02:55:56;4.40;;;3.80;;
84999;SDS011;75320;51.608;7.952;2024-02-26T02:58:22;4.50;;;4.07;;
84999;SDS011;75320;51.608;7.952;2024-02-26T03:00:47;4.17;;;1.83;;
84999;SDS011;75320;51.608;7.952;2024-02-26T03:03:12;4.55;;;3.70;;
84999;SDS011;75320;51.608;7.952;2024-02-26T03:05:38;3.77;;;2.23;;
84999;SDS011;75320;51.608;7.952;2024-02-26T03:08:03;4.17;;;3.63;;
84999;SDS011;75320;51.608;7.952;2024-02-26T03:10:28;4.38;;;3.72;;
84999;SDS011;75320;51.608;7.952;2024-02-26T03:12:54;4.35;;;3.90;;
84999;SDS011;75320;51.608;7.952;2024-02-26T03:15:21;5.65;;;3.70;;
84999;SDS011;75320;51.608;7.952;2024-02-26T03:17:47;5.13;;;3.40;;
84999;SDS011;75320;51.608;7.952;2024-02-26T03:20:12;4.57;;;3.83;;
84999;SDS011;75320;51.608;7.952;2024-02-26T03:22:38;5.72;;;4.38;;
84999;SDS011;75320;51.608;7.952;2024-02-26T03:25:04;5.53;;;5.03;;
84999;SDS011;75320;51.608;7.952;2024-02-26T03:27:31;4.55;;;3.92;;
84999;SDS011;75320;51.608;7.952;2024-02-26T03:29:56;4.28;;;3.88;;
84999;SDS011;75320;51.608;7.952;2024-02-26T03:32:22;3.75;;;2.08;;
84999;SDS011;75320;51.608;7.952;2024-02-26T03:34:47;3.83;;;3.42;;
84999;SDS011;75320;51.608;7.952;2024-02-26T03:37:12;4.45;;;4.03;;
84999;SDS011;75320;51.608;7.952;2024-02-26T03:39:38;4.53;;;4.13;;
84999;SDS011;75320;51.608;7.952;2024-02-26T03:42:04;4.47;;;3.80;;
84999;SDS011;75320;51.608;7.952;2024-02-26T03:44:29;6.47;;;3.35;;
84999;SDS011;75320;51.608;7.952;2024-02-26T03:46:54;4.10;;;3.03;;
84999;SDS011;75320;51.608;7.952;2024-02-26T03:49:20;4.13;;;3.28;;
84999;SDS011;75320;51.608;7.952;2024-02-26T03:51:46;3.88;;;3.35;;
84999;SDS011;75320;51.608;7.952;2024-02-26T03:54:12;5.82;;;4.80;;
84999;SDS011;75320;51.608;7.952;2024-02-26T03:56:38;4.35;;;3.60;;
84999;SDS011;75320;51.608;7.952;2024-02-26T03:59:04;4.50;;;3.47;;
84999;SDS011;75320;51.608;7.952;2024-02-26T04:01:29;3.95;;;3.15;;
84999;SDS011;75320;51.608;7.952;2024-02-26T04:03:56;3.55;;;2.22;;
84999;SDS011;75320;51.608;7.952;2024-02-26T04:06:21;3.67;;;3.15;;
84999;SDS011;75320;51.608;7.952;2024-02-26T04:08:47;5.35;;;1.90;;
84999;SDS011;75320;51.608;7.952;2024-02-26T04:11:13;3.97;;;3.10;;
84999;SDS011;75320;51.608;7.952;2024-02-26T04:13:42;3.55;;;1.77;;
84999;SDS011;75320;51.608;7.952;2024-02-26T04:16:10;3.65;;;2.13;;
84999;SDS011;75320;51.608;7.952;2024-02-26T04:18:36;4.65;;;4.18;;
84999;SDS011;75320;51.608;7.952;2024-02-26T04:21:01;4.38;;;3.55;;
84999;SDS011;75320;51.608;7.952;2024-02-26T04:23:27;4.72;;;3.58;;
84999;SDS011;75320;51.608;7.952;2024-02-26T04:25:52;4.80;;;3.80;;
84999;SDS011;75320;51.608;7.952;2024-02-26T04:28:18;4.85;;;3.58;;
84999;SDS011;75320;51.608;7.952;2024-02-26T04:30:45;4.30;;;3.55;;
84999;SDS011;75320;51.608;7.952;2024-02-26T04:33:12;4.70;;;4.28;;
84999;SDS011;75320;51.608;7.952;2024-02-26T04:35:37;4.27;;;3.13;;
84999;SDS011;75320;51.608;7.952;2024-02-26T04:38:02;4.17;;;3.77;;
84999;SDS011;75320;51.608;7.952;2024-02-26T04:40:27;4.50;;;4.10;;
84999;SDS011;75320;51.608;7.952;2024-02-26T04:42:53;4.03;;;3.33;;
84999;SDS011;75320;51.608;7.952;2024-02-26T04:45:19;4.25;;;3.75;;
84999;SDS011;75320;51.608;7.952;2024-02-26T04:47:45;4.30;;;3.03;;
84999;SDS011;75320;51.608;7.952;2024-02-26T04:50:11;4.10;;;3.67;;
84999;SDS011;75320;51.608;7.952;2024-02-26T04:52:37;4.03;;;3.27;;
84999;SDS011;75320;51.608;7.952;2024-02-26T04:55:02;4.47;;;3.97;;
84999;SDS011;75320;51.608;7.952;2024-02-26T04:57:29;5.30;;;4.00;;
84999;SDS011;75320;51.608;7.952;2024-02-26T04:59:54;4.28;;;3.88;;
84999;SDS011;75320;51.608;7.952;2024-02-26T05:02:19;4.78;;;4.07;;
84999;SDS011;75320;51.608;7.952;2024-02-26T05:04:45;4.57;;;3.10;;
84999;SDS011;75320;51.608;7.952;2024-02-26T05:07:10;6.37;;;5.80;;
84999;SDS011;75320;51.608;7.952;2024-02-26T05:09:37;4.60;;;3.50;;
84999;SDS011;75320;51.608;7.952;2024-02-26T05:12:02;5.23;;;4.00;;
84999;SDS011;75320;51.608;7.952;2024-02-26T05:14:28;3.08;;;1.85;;
84999;SDS011;75320;51.608;7.952;2024-02-26T05:16:54;4.15;;;3.58;;
84999;SDS011;75320;51.608;7.952;2024-02-26T05:19:19;4.03;;;3.60;;
84999;SDS011;75320;51.608;7.952;2024-02-26T05:21:45;3.90;;;3.42;;
84999;SDS011;75320;51.608;7.952;2024-02-26T05:24:12;3.53;;;2.13;;
84999;SDS011;75320;51.608;7.952;2024-02-26T05:26:38;4.65;;;3.38;;
84999;SDS011;75320;51.608;7.952;2024-02-26T05:29:03;4.20;;;3.80;;
84999;SDS011;75320;51.608;7.952;2024-02-26T05:31:28;4.97;;;3.58;;
84999;SDS011;75320;51.608;7.952;2024-02-26T05:33:54;3.75;;;3.28;;
84999;SDS011;75320;51.608;7.952;2024-02-26T05:36:22;3.67;;;3.10;;
84999;SDS011;75320;51.608;7.952;2024-02-26T05:38:49;3.78;;;2.17;;
84999;SDS011;75320;51.608;7.952;2024-02-26T05:41:16;4.30;;;3.90;;
84999;SDS011;75320;51.608;7.952;2024-02-26T05:43:48;4.15;;;3.75;;
84999;SDS011;75320;51.608;7.952;2024-02-26T05:46:16;4.90;;;3.97;;
84999;SDS011;75320;51.608;7.952;2024-02-26T05:48:43;3.50;;;1.85;;
84999;SDS011;75320;51.608;7.952;2024-02-26T05:51:09;4.43;;;3.83;;
84999;SDS011;75320;51.608;7.952;2024-02-26T05:53:34;4.03;;;2.20;;
84999;SDS011;75320;51.608;7.952;2024-02-26T05:55:59;3.13;;;1.70;;
84999;SDS011;75320;51.608;7.952;2024-02-26T05:58:25;3.83;;;2.97;;
84999;SDS011;75320;51.608;7.952;2024-02-26T06:00:50;4.18;;;3.78;;
84999;SDS011;75320;51.608;7.952;2024-02-26T06:03:15;4.07;;;3.53;;
84999;SDS011;75320;51.608;7.952;2024-02-26T06:05:42;4.97;;;4.55;;
84999;SDS011;75320;51.608;7.952;2024-02-26T06:08:11;5.20;;;3.67;;
84999;SDS011;75320;51.608;7.952;2024-02-26T06:10:36;4.53;;;4.03;;
84999;SDS011;75320;51.608;7.952;2024-02-26T06:13:03;5.68;;;3.78;;
84999;SDS011;75320;51.608;7.952;2024-02-26T06:15:28;3.90;;;3.50;;
84999;SDS011;75320;51.608;7.952;2024-02-26T06:17:54;5.57;;;3.63;;
84999;SDS011;75320;51.608;7.952;2024-02-26T06:20:19;5.60;;;4.18;;
84999;SDS011;75320;51.608;7.952;2024-02-26T06:22:44;4.20;;;3.80;;
84999;SDS011;75320;51.608;7.952;2024-02-26T06:25:10;4.47;;;3.50;;
84999;SDS011;75320;51.608;7.952;2024-02-26T06:27:35;4.13;;;3.73;;
84999;SDS011;75320;51.608;7.952;2024-02-26T06:30:01;4.75;;;4.05;;
84999;SDS011;75320;51.608;7.952;2024-02-26T06:32:26;4.05;;;3.45;;
84999;SDS011;75320;51.608;7.952;2024-02-26T06:34:54;5.55;;;3.10;;
84999;SDS011;75320;51.608;7.952;2024-02-26T06:37:21;4.28;;;3.35;;
84999;SDS011;75320;51.608;7.952;2024-02-26T06:39:47;5.63;;;3.67;;
84999;SDS011;75320;51.608;7.952;2024-02-26T06:42:12;4.35;;;3.95;;
84999;SDS011;75320;51.608;7.952;2024-02-26T06:44:37;4.65;;;4.25;;
84999;SDS011;75320;51.608;7.952;2024-02-26T06:47:03;5.83;;;5.33;;
84999;SDS011;75320;51.608;7.952;2024-02-26T06:49:28;5.03;;;4.43;;
84999;SDS011;75320;51.608;7.952;2024-02-26T06:51:54;4.85;;;4.07;;
84999;SDS011;75320;51.608;7.952;2024-02-26T06:54:19;6.03;;;4.22;;
84999;SDS011;75320;51.608;7.952;2024-02-26T06:56:45;4.90;;;3.78;;
84999;SDS011;75320;51.608;7.952;2024-02-26T06:59:11;3.58;;;2.10;;
84999;SDS011;75320;51.608;7.952;2024-02-26T07:01:36;3.80;;;1.87;;
84999;SDS011;75320;51.608;7.952;2024-02-26T07:04:06;5.05;;;3.75;;
84999;SDS011;75320;51.608;7.952;2024-02-26T07:06:33;4.78;;;3.10;;
84999;SDS011;75320;51.608;7.952;2024-02-26T07:09:03;5.13;;;3.38;;
84999;SDS011;75320;51.608;7.952;2024-02-26T07:11:28;4.18;;;2.22;;
84999;SDS011;75320;51.608;7.952;2024-02-26T07:13:54;4.90;;;4.43;;
84999;SDS011;75320;51.608;7.952;2024-02-26T07:16:19;3.63;;;2.15;;
84999;SDS011;75320;51.608;7.952;2024-02-26T07:18:45;4.18;;;3.20;;
84999;SDS011;75320;51.608;7.952;2024-02-26T07:21:11;4.35;;;3.53;;
84999;SDS011;75320;51.608;7.952;2024-02-26T07:23:38;4.57;;;4.03;;
84999;SDS011;75320;51.608;7.952;2024-02-26T07:26:05;4.72;;;3.08;;
84999;SDS011;75320;51.608;7.952;2024-02-26T07:28:30;3.78;;;2.03;;
84999;SDS011;75320;51.608;7.952;2024-02-26T07:30:59;5.53;;;4.07;;
84999;SDS011;75320;51.608;7.952;2024-02-26T07:33:25;3.70;;;2.00;;
84999;SDS011;75320;51.608;7.952;2024-02-26T07:35:51;4.05;;;2.33;;
84999;SDS011;75320;51.608;7.952;2024-02-26T07:38:18;4.38;;;3.22;;
84999;SDS011;75320;51.608;7.952;2024-02-26T07:40:45;4.68;;;3.05;;
84999;SDS011;75320;51.608;7.952;2024-02-26T07:43:11;4.93;;;3.93;;
84999;SDS011;75320;51.608;7.952;2024-02-26T07:45:37;5.03;;;2.40;;
84999;SDS011;75320;51.608;7.952;2024-02-26T07:48:02;5.13;;;3.67;;
84999;SDS011;75320;51.608;7.952;2024-02-26T07:50:29;4.40;;;2.35;;
84999;SDS011;75320;51.608;7.952;2024-02-26T07:52:54;5.10;;;4.07;;
84999;SDS011;75320;51.608;7.952;2024-02-26T07:55:20;6.40;;;4.60;;
84999;SDS011;75320;51.608;7.952;2024-02-26T07:57:47;5.75;;;3.00;;
84999;SDS011;75320;51.608;7.952;2024-02-26T08:00:12;4.93;;;2.60;;
84999;SDS011;75320;51.608;7.952;2024-02-26T08:02:41;4.68;;;2.65;;
84999;SDS011;75320;51.608;7.952;2024-02-26T08:05:07;6.82;;;4.13;;
84999;SDS011;75320;51.608;7.952;2024-02-26T08:07:32;5.35;;;2.63;;
84999;SDS011;75320;51.608;7.952;2024-02-26T08:09:57;4.87;;;2.60;;
84999;SDS011;75320;51.608;7.952;2024-02-26T08:12:26;4.53;;;2.30;;
84999;SDS011;75320;51.608;7.952;2024-02-26T08:14:51;4.95;;;3.33;;
84999;SDS011;75320;51.608;7.952;2024-02-26T08:17:18;4.10;;;3.57;;
84999;SDS011;75320;51.608;7.952;2024-02-26T08:19:43;4.97;;;2.40;;
84999;SDS011;75320;51.608;7.952;2024-02-26T08:22:08;4.40;;;2.50;;
84999;SDS011;75320;51.608;7.952;2024-02-26T08:24:35;4.80;;;3.75;;
84999;SDS011;75320;51.608;7.952;2024-02-26T08:27:02;4.93;;;3.07;;
84999;SDS011;75320;51.608;7.952;2024-02-26T08:29:29;4.95;;;3.22;;
84999;SDS011;75320;51.608;7.952;2024-02-26T08:31:54;4.20;;;2.70;;
84999;SDS011;75320;51.608;7.952;2024-02-26T08:34:21;4.75;;;2.25;;
84999;SDS011;75320;51.608;7.952;2024-02-26T08:36:48;4.88;;;2.22;;
84999;SDS011;75320;51.608;7.952;2024-02-26T08:39:14;4.90;;;3.83;;
84999;SDS011;75320;51.608;7.952;2024-02-26T08:41:42;3.75;;;2.03;;
84999;SDS011;75320;51.608;7.952;2024-02-26T08:44:09;4.70;;;2.50;;
84999;SDS011;75320;51.608;7.952;2024-02-26T08:46:34;5.13;;;2.83;;
84999;SDS011;75320;51.608;7.952;2024-02-26T08:51:27;5.25;;;3.15;;
84999;SDS011;75320;51.608;7.952;2024-02-26T08:53:53;7.37;;;4.03;;
84999;SDS011;75320;51.608;7.952;2024-02-26T08:56:19;4.22;;;2.72;;
84999;SDS011;75320;51.608;7.952;2024-02-26T08:58:46;6.93;;;6.32;;
84999;SDS011;75320;51.608;7.952;2024-02-26T09:01:13;5.43;;;4.35;;
84999;SDS011;75320;51.608;7.952;2024-02-26T09:03:39;4.68;;;2.35;;
84999;SDS011;75320;51.608;7.952;2024-02-26T09:06:05;4.75;;;3.58;;
84999;SDS011;75320;51.608;7.952;2024-02-26T09:08:35;5.25;;;2.55;;
84999;SDS011;75320;51.608;7.952;2024-02-26T09:11:04;4.93;;;2.53;;
84999;SDS011;75320;51.608;7.952;2024-02-26T09:13:29;5.38;;;2.95;;
84999;SDS011;75320;51.608;7.952;2024-02-26T09:15:54;6.23;;;3.93;;
84999;SDS011;75320;51.608;7.952;2024-02-26T09:18:21;5.90;;;2.22;;
84999;SDS011;75320;51.608;7.952;2024-02-26T09:20:46;4.88;;;2.35;;
84999;SDS011;75320;51.608;7.952;2024-02-26T09:23:11;4.97;;;2.50;;
84999;SDS011;75320;51.608;7.952;2024-02-26T09:25:37;5.32;;;3.08;;
84999;SDS011;75320;51.608;7.952;2024-02-26T09:28:03;3.70;;;2.33;;
84999;SDS011;75320;51.608;7.952;2024-02-26T09:30:29;4.85;;;2.38;;
84999;SDS011;75320;51.608;7.952;2024-02-26T09:32:55;4.40;;;3.03;;
84999;SDS011;75320;51.608;7.952;2024-02-26T09:35:21;4.40;;;2.40;;
84999;SDS011;75320;51.608;7.952;2024-02-26T09:37:46;4.15;;;2.35;;
84999;SDS011;75320;51.608;7.952;2024-02-26T09:40:14;5.35;;;3.20;;
84999;SDS011;75320;51.608;7.952;2024-02-26T09:42:43;4.93;;;3.63;;
84999;SDS011;75320;51.608;7.952;2024-02-26T09:45:10;5.65;;;3.70;;
84999;SDS011;75320;51.608;7.952;2024-02-26T09:47:43;6.38;;;2.83;;
84999;SDS011;75320;51.608;7.952;2024-02-26T09:50:10;6.32;;;3.10;;
84999;SDS011;75320;51.608;7.952;2024-02-26T09:52:38;4.40;;;2.63;;
84999;SDS011;75320;51.608;7.952;2024-02-26T09:55:06;4.63;;;2.63;;
84999;SDS011;75320;51.608;7.952;2024-02-26T09:57:33;5.45;;;3.08;;
84999;SDS011;75320;51.608;7.952;2024-02-26T09:59:59;7.63;;;3.42;;
84999;SDS011;75320;51.608;7.952;2024-02-26T10:02:28;4.85;;;2.70;;
84999;SDS011;75320;51.608;7.952;2024-02-26T10:04:56;6.75;;;4.18;;
84999;SDS011;75320;51.608;7.952;2024-02-26T10:07:23;6.82;;;4.95;;
84999;SDS011;75320;51.608;7.952;2024-02-26T10:09:48;6.85;;;3.88;;
84999;SDS011;75320;51.608;7.952;2024-02-26T10:12:14;6.22;;;3.70;;
84999;SDS011;75320;51.608;7.952;2024-02-26T10:14:42;7.45;;;4.53;;
84999;SDS011;75320;51.608;7.952;2024-02-26T10:17:07;6.35;;;4.20;;
84999;SDS011;75320;51.608;7.952;2024-02-26T10:19:33;8.43;;;5.22;;
84999;SDS011;75320;51.608;7.952;2024-02-26T10:21:59;7.30;;;4.20;;
84999;SDS011;75320;51.608;7.952;2024-02-26T10:24:26;6.38;;;3.47;;
84999;SDS011;75320;51.608;7.952;2024-02-26T10:26:52;5.65;;;3.67;;
84999;SDS011;75320;51.608;7.952;2024-02-26T10:29:20;5.88;;;4.32;;
84999;SDS011;75320;51.608;7.952;2024-02-26T10:31:46;7.15;;;3.60;;
84999;SDS011;75320;51.608;7.952;2024-02-26T10:34:11;6.43;;;3.13;;
84999;SDS011;75320;51.608;7.952;2024-02-26T10:36:36;6.70;;;4.63;;
84999;SDS011;75320;51.608;7.952;2024-02-26T10:39:03;5.80;;;4.55;;
84999;SDS011;75320;51.608;7.952;2024-02-26T10:41:30;6.10;;;3.97;;
84999;SDS011;75320;51.608;7.952;2024-02-26T10:43:57;9.15;;;3.50;;
84999;SDS011;75320;51.608;7.952;2024-02-26T10:46:23;6.33;;;4.03;;
84999;SDS011;75320;51.608;7.952;2024-02-26T10:48:52;7.28;;;5.35;;
84999;SDS011;75320;51.608;7.952;2024-02-26T10:51:24;6.88;;;4.55;;
84999;SDS011;75320;51.608;7.952;2024-02-26T10:53:57;6.75;;;4.82;;
84999;SDS011;75320;51.608;7.952;2024-02-26T10:56:25;6.75;;;4.22;;
84999;SDS011;75320;51.608;7.952;2024-02-26T10:58:55;5.47;;;3.17;;
84999;SDS011;75320;51.608;7.952;2024-02-26T11:01:22;6.60;;;3.10;;
84999;SDS011;75320;51.608;7.952;2024-02-26T11:03:51;5.10;;;3.83;;
84999;SDS011;75320;51.608;7.952;2024-02-26T11:06:25;4.93;;;2.85;;
84999;SDS011;75320;51.608;7.952;2024-02-26T11:11:19;4.45;;;2.55;;
84999;SDS011;75320;51.608;7.952;2024-02-26T11:13:46;4.68;;;2.40;;
84999;SDS011;75320;51.608;7.952;2024-02-26T11:16:20;7.10;;;4.00;;
84999;SDS011;75320;51.608;7.952;2024-02-26T11:18:47;4.95;;;2.40;;
84999;SDS011;75320;51.608;7.952;2024-02-26T11:21:17;5.22;;;2.83;;
84999;SDS011;75320;51.608;7.952;2024-02-26T11:23:52;5.78;;;3.53;;
84999;SDS011;75320;51.608;7.952;2024-02-26T11:26:18;7.70;;;4.32;;
84999;SDS011;75320;51.608;7.952;2024-02-26T11:28:46;7.03;;;4.20;;
84999;SDS011;75320;51.608;7.952;2024-02-26T11:36:08;5.95;;;4.28;;
84999;SDS011;75320;51.608;7.952;2024-02-26T11:38:34;5.43;;;3.03;;
84999;SDS011;75320;51.608;7.952;2024-02-26T11:41:02;6.18;;;4.03;;
84999;SDS011;75320;51.608;7.952;2024-02-26T11:46:26;6.32;;;4.03;;
84999;SDS011;75320;51.608;7.952;2024-02-26T11:48:53;5.30;;;3.13;;
84999;SDS011;75320;51.608;7.952;2024-02-26T11:51:24;6.70;;;4.13;;
84999;SDS011;75320;51.608;7.952;2024-02-26T11:53:51;7.43;;;3.95;;
84999;SDS011;75320;51.608;7.952;2024-02-26T11:56:21;5.75;;;3.17;;
84999;SDS011;75320;51.608;7.952;2024-02-26T11:58:48;6.30;;;4.25;;
84999;SDS011;75320;51.608;7.952;2024-02-26T12:04:18;5.57;;;4.00;;
84999;SDS011;75320;51.608;7.952;2024-02-26T12:12:13;5.82;;;3.63;;
84999;SDS011;75320;51.608;7.952;2024-02-26T12:14:52;6.40;;;3.58;;
84999;SDS011;75320;51.608;7.952;2024-02-26T12:17:25;5.90;;;4.10;;
84999;SDS011;75320;51.608;7.952;2024-02-26T12:19:51;5.93;;;3.45;;
84999;SDS011;75320;51.608;7.952;2024-02-26T12:22:18;6.03;;;4.18;;
84999;SDS011;75320;51.608;7.952;2024-02-26T12:24:44;5.80;;;3.78;;
84999;SDS011;75320;51.608;7.952;2024-02-26T12:27:10;6.05;;;3.83;;
84999;SDS011;75320;51.608;7.952;2024-02-26T12:29:37;5.85;;;4.47;;
84999;SDS011;75320;51.608;7.952;2024-02-26T12:32:03;7.95;;;5.22;;
84999;SDS011;75320;51.608;7.952;2024-02-26T12:34:30;7.03;;;3.83;;
84999;SDS011;75320;51.608;7.952;2024-02-26T12:36:56;7.30;;;5.22;;
84999;SDS011;75320;51.608;7.952;2024-02-26T12:39:22;7.65;;;5.10;;
84999;SDS011;75320;51.608;7.952;2024-02-26T12:41:47;7.35;;;5.07;;
84999;SDS011;75320;51.608;7.952;2024-02-26T12:44:23;8.52;;;6.22;;
84999;SDS011;75320;51.608;7.952;2024-02-26T12:46:50;7.85;;;5.35;;
84999;SDS011;75320;51.608;7.952;2024-02-26T12:49:15;7.75;;;4.90;;
84999;SDS011;75320;51.608;7.952;2024-02-26T12:51:43;7.93;;;4.55;;
84999;SDS011;75320;51.608;7.952;2024-02-26T12:54:09;8.07;;;4.50;;
84999;SDS011;75320;51.608;7.952;2024-02-26T12:56:34;7.07;;;5.30;;
84999;SDS011;75320;51.608;7.952;2024-02-26T12:59:00;6.90;;;5.03;;
84999;SDS011;75320;51.608;7.952;2024-02-26T13:01:27;6.88;;;5.03;;
84999;SDS011;75320;51.608;7.952;2024-02-26T13:03:53;8.70;;;4.88;;
84999;SDS011;75320;51.608;7.952;2024-02-26T13:06:19;7.10;;;5.25;;
84999;SDS011;75320;51.608;7.952;2024-02-26T13:08:47;6.78;;;5.45;;
84999;SDS011;75320;51.608;7.952;2024-02-26T13:11:13;6.45;;;4.75;;
84999;SDS011;75320;51.608;7.952;2024-02-26T13:13:39;8.43;;;5.65;;
84999;SDS011;75320;51.608;7.952;2024-02-26T13:16:05;6.68;;;4.60;;
84999;SDS011;75320;51.608;7.952;2024-02-26T13:18:33;5.63;;;3.55;;
84999;SDS011;75320;51.608;7.952;2024-02-26T13:21:08;8.68;;;4.55;;
84999;SDS011;75320;51.608;7.952;2024-02-26T13:23:34;6.97;;;5.30;;
84999;SDS011;75320;51.608;7.952;2024-02-26T13:25:59;8.10;;;5.32;;
84999;SDS011;75320;51.608;7.952;2024-02-26T13:28:26;5.93;;;4.78;;
84999;SDS011;75320;51.608;7.952;2024-02-26T13:30:55;6.32;;;4.80;;
84999;SDS011;75320;51.608;7.952;2024-02-26T13:33:22;8.20;;;5.05;;
84999;SDS011;75320;51.608;7.952;2024-02-26T13:35:48;7.35;;;5.28;;
84999;SDS011;75320;51.608;7.952;2024-02-26T13:38:13;8.68;;;5.38;;
84999;SDS011;75320;51.608;7.952;2024-02-26T13:40:39;7.22;;;4.18;;
84999;SDS011;75320;51.608;7.952;2024-02-26T13:43:04;9.13;;;4.22;;
84999;SDS011;75320;51.608;7.952;2024-02-26T13:45:30;8.32;;;4.57;;
84999;SDS011;75320;51.608;7.952;2024-02-26T13:47:59;9.15;;;6.50;;
84999;SDS011;75320;51.608;7.952;2024-02-26T13:50:28;6.18;;;4.28;;
84999;SDS011;75320;51.608;7.952;2024-02-26T13:52:53;9.00;;;5.57;;
84999;SDS011;75320;51.608;7.952;2024-02-26T13:55:19;9.02;;;6.28;;
84999;SDS011;75320;51.608;7.952;2024-02-26T13:57:45;8.82;;;5.97;;
84999;SDS011;75320;51.608;7.952;2024-02-26T14:00:12;9.60;;;6.00;;
84999;SDS011;75320;51.608;7.952;2024-02-26T14:02:37;7.65;;;5.93;;
84999;SDS011;75320;51.608;7.952;2024-02-26T14:05:03;7.20;;;4.70;;
84999;SDS011;75320;51.608;7.952;2024-02-26T14:07:30;8.23;;;5.43;;
84999;SDS011;75320;51.608;7.952;2024-02-26T14:09:57;7.55;;;5.10;;
84999;SDS011;75320;51.608;7.952;2024-02-26T14:12:23;8.05;;;5.07;;
84999;SDS011;75320;51.608;7.952;2024-02-26T14:14:48;10.43;;;4.80;;
84999;SDS011;75320;51.608;7.952;2024-02-26T14:17:14;17.23;;;6.22;;
84999;SDS011;75320;51.608;7.952;2024-02-26T14:19:40;9.68;;;4.75;;
84999;SDS011;75320;51.608;7.952;2024-02-26T14:22:10;6.40;;;4.15;;
84999;SDS011;75320;51.608;7.952;2024-02-26T14:24:36;8.63;;;6.25;;
84999;SDS011;75320;51.608;7.952;2024-02-26T14:27:01;7.60;;;5.00;;
84999;SDS011;75320;51.608;7.952;2024-02-26T14:29:28;6.38;;;4.07;;
84999;SDS011;75320;51.608;7.952;2024-02-26T14:31:53;7.75;;;5.40;;
84999;SDS011;75320;51.608;7.952;2024-02-26T14:34:22;8.63;;;7.07;;
84999;SDS011;75320;51.608;7.952;2024-02-26T14:36:47;6.00;;;3.80;;
84999;SDS011;75320;51.608;7.952;2024-02-26T14:39:12;8.70;;;3.92;;
84999;SDS011;75320;51.608;7.952;2024-02-26T14:41:39;8.30;;;5.53;;
84999;SDS011;75320;51.608;7.952;2024-02-26T14:44:05;6.18;;;3.55;;
84999;SDS011;75320;51.608;7.952;2024-02-26T14:46:31;6.45;;;3.63;;
84999;SDS011;75320;51.608;7.952;2024-02-26T14:48:57;7.63;;;3.72;;
84999;SDS011;75320;51.608;7.952;2024-02-26T14:51:23;7.40;;;3.97;;
84999;SDS011;75320;51.608;7.952;2024-02-26T14:53:48;6.60;;;3.97;;
84999;SDS011;75320;51.608;7.952;2024-02-26T14:56:14;6.38;;;3.70;;
84999;SDS011;75320;51.608;7.952;2024-02-26T14:58:40;6.40;;;3.73;;
84999;SDS011;75320;51.608;7.952;2024-02-26T15:01:06;6.85;;;5.15;;
84999;SDS011;75320;51.608;7.952;2024-02-26T15:03:32;8.60;;;4.10;;